Time;durP1;ratioP1;P1;durP2;ratioP2;P2;SDS_P1;SDS_P2;PMS_P1;PMS_P2;Temp;Humidity;BMP_temperature;BMP_pressure;BME280_temperature;BME280_humidity;BME280_pressure;Samples;Min_cycle;Max_cycle;Signal;HPM_P1;HPM_P2
2022/03/17 00:00:57;;;;;;;51.78;43.10;;;8.60;91.00;;;;;;5115349;28;20043;-80
2022/03/17 00:03:23;;;;;;;51.28;42.47;;;8.60;90.90;;;;;;5114507;28;20460;-79
2022/03/17 00:05:49;;;;;;;54.50;43.55;;;8.60;90.90;;;;;;5114153;28;20031;-81
2022/03/17 00:08:16;;;;;;;54.63;43.38;;;8.60;91.10;;;;;;5115051;28;20160;-80
2022/03/17 00:10:42;;;;;;;53.03;43.28;;;8.50;91.30;;;;;;5114506;28;20023;-78
2022/03/17 00:13:08;;;;;;;55.80;43.95;;;8.50;91.70;;;;;;5114522;28;20421;-79
2022/03/17 00:15:34;;;;;;;54.78;42.47;;;8.50;91.70;;;;;;5114367;28;20157;-81
2022/03/17 00:17:59;;;;;;;55.30;42.22;;;8.50;91.80;;;;;;5113497;28;20027;-80
2022/03/17 00:20:25;;;;;;;53.65;42.67;;;8.50;92.20;;;;;;5114142;28;20396;-79
2022/03/17 00:22:51;;;;;;;55.28;43.28;;;8.50;92.20;;;;;;5114389;28;20517;-80
2022/03/17 00:25:17;;;;;;;57.13;43.88;;;8.40;92.10;;;;;;5113779;28;20028;-79
2022/03/17 00:27:43;;;;;;;57.25;43.38;;;8.40;92.30;;;;;;5114041;28;20038;-79
2022/03/17 00:30:09;;;;;;;58.88;43.67;;;8.30;92.40;;;;;;5114499;28;20436;-80
2022/03/17 00:32:35;;;;;;;56.55;43.72;;;8.30;92.50;;;;;;5114052;28;20051;-80
2022/03/17 00:37:46;;;;;;;55.80;44.08;;;8.30;93.00;;;;;;5113646;28;20035;-80
2022/03/17 00:40:13;;;;;;;54.95;43.55;;;8.30;92.80;;;;;;5113979;28;20543;-81
2022/03/17 00:42:39;;;;;;;59.28;45.55;;;8.30;92.80;;;;;;5113781;28;20509;-80
2022/03/17 00:45:05;;;;;;;56.47;45.72;;;8.30;92.80;;;;;;5112800;28;20031;-80
2022/03/17 00:47:31;;;;;;;59.17;45.58;;;8.30;92.50;;;;;;5113824;28;20024;-79
2022/03/17 00:49:56;;;;;;;55.88;44.05;;;8.30;92.40;;;;;;5114245;28;20124;-81
2022/03/17 00:52:22;;;;;;;57.30;47.05;;;8.30;92.50;;;;;;5114243;28;20077;-79
2022/03/17 00:54:48;;;;;;;58.15;46.05;;;8.20;92.40;;;;;;5111798;28;20024;-79
2022/03/17 00:57:13;;;;;;;56.42;45.47;;;8.20;92.70;;;;;;5114099;28;20068;-79
2022/03/17 00:59:40;;;;;;;60.13;45.20;;;8.20;92.60;;;;;;5113474;28;20039;-79
2022/03/17 01:02:06;;;;;;;57.53;45.33;;;8.20;92.80;;;;;;5113725;28;20464;-80
2022/03/17 01:04:33;;;;;;;56.17;45.45;;;8.20;92.80;;;;;;5113802;28;20097;-80
2022/03/17 01:06:59;;;;;;;55.85;45.03;;;8.10;92.60;;;;;;5113839;27;20456;-80
2022/03/17 01:09:28;;;;;;;57.92;45.47;;;8.20;92.90;;;;;;5113534;28;20034;-79
2022/03/17 01:11:54;;;;;;;63.97;48.67;;;8.10;92.80;;;;;;5113917;28;20030;-79
2022/03/17 01:14:19;;;;;;;59.53;47.58;;;8.10;93.00;;;;;;5114345;28;20058;-80
2022/03/17 01:16:45;;;;;;;58.17;46.25;;;8.10;93.30;;;;;;5113682;28;20024;-79
2022/03/17 01:19:11;;;;;;;59.95;47.67;;;8.10;93.30;;;;;;5112967;28;20027;-80
2022/03/17 01:21:36;;;;;;;58.03;47.03;;;8.10;93.40;;;;;;5113483;28;20395;-80
2022/03/17 01:24:02;;;;;;;58.35;46.78;;;8.00;93.10;;;;;;5114013;28;20048;-81
2022/03/17 01:26:28;;;;;;;60.63;47.42;;;8.00;93.20;;;;;;5113371;28;20019;-79
2022/03/17 01:28:53;;;;;;;55.97;44.90;;;8.00;93.60;;;;;;5112494;28;20471;-80
2022/03/17 01:31:23;;;;;;;58.25;47.67;;;8.00;93.60;;;;;;5112789;28;20111;-79
2022/03/17 01:33:48;;;;;;;56.85;45.38;;;8.00;93.80;;;;;;5113253;28;20031;-79
2022/03/17 01:36:14;;;;;;;59.67;46.30;;;8.00;93.90;;;;;;5113574;28;20468;-79
2022/03/17 01:38:39;;;;;;;57.92;45.80;;;7.90;93.50;;;;;;5112726;28;20027;-79
2022/03/17 01:41:05;;;;;;;61.75;47.22;;;7.90;93.80;;;;;;5113243;28;20032;-80
2022/03/17 01:43:31;;;;;;;58.13;47.15;;;7.90;93.60;;;;;;5113179;28;20049;-78
2022/03/17 01:45:56;;;;;;;60.17;47.92;;;7.90;93.70;;;;;;5113255;28;20024;-79
2022/03/17 01:48:22;;;;;;;59.38;47.42;;;7.90;94.00;;;;;;5111684;28;20122;-79
2022/03/17 01:50:53;;;;;;;61.35;47.20;;;7.80;93.90;;;;;;5112286;28;20023;-78
2022/03/17 01:53:19;;;;;;;60.42;47.15;;;7.80;94.00;;;;;;5112864;28;20076;-79
2022/03/17 01:55:45;;;;;;;61.22;48.50;;;7.80;94.00;;;;;;5112375;28;20063;-79
2022/03/17 01:58:11;;;;;;;63.25;47.53;;;7.80;94.20;;;;;;5111770;28;20119;-80
2022/03/17 02:00:37;;;;;;;62.38;48.90;;;7.70;94.00;;;;;;5112306;28;20031;-79
2022/03/17 02:03:03;;;;;;;61.60;47.47;;;7.70;94.40;;;;;;5113565;28;20030;-79
2022/03/17 02:05:29;;;;;;;60.90;48.60;;;7.70;94.50;;;;;;5115457;28;20031;-77
2022/03/17 02:07:55;;;;;;;61.80;47.80;;;7.60;94.60;;;;;;5124439;28;20055;-79
2022/03/17 02:10:22;;;;;;;64.07;48.92;;;7.60;94.80;;;;;;5113968;28;20412;-78
2022/03/17 02:15:52;;;;;;;57.78;45.67;;;7.60;94.90;;;;;;5112196;28;20035;-77
2022/03/17 02:18:18;;;;;;;60.88;46.55;;;7.50;95.00;;;;;;5112540;28;20024;-78
2022/03/17 02:20:44;;;;;;;55.78;44.13;;;7.50;95.00;;;;;;5112284;28;20031;-78
2022/03/17 02:25:57;;;;;;;55.40;45.15;;;7.40;95.30;;;;;;5112250;28;20069;-79
2022/03/17 02:28:25;;;;;;;59.45;46.33;;;7.40;95.50;;;;;;5112594;28;20028;-78
2022/03/17 02:30:50;;;;;;;57.13;46.67;;;7.40;95.90;;;;;;5112110;28;20063;-79
2022/03/17 02:33:16;;;;;;;58.13;46.17;;;7.40;95.80;;;;;;5112866;28;20063;-79
2022/03/17 02:35:47;;;;;;;58.65;45.80;;;7.40;96.20;;;;;;5110561;28;20050;-79
2022/03/17 02:38:13;;;;;;;57.97;46.90;;;7.30;96.10;;;;;;5112713;28;20054;-79
2022/03/17 02:40:41;;;;;;;57.13;45.95;;;7.30;96.20;;;;;;5093633;28;20043;-79
2022/03/17 02:43:07;;;;;;;57.60;45.10;;;7.30;96.70;;;;;;5111072;28;20360;-79
2022/03/17 02:45:35;;;;;;;63.65;45.65;;;7.20;96.50;;;;;;5111569;28;20507;-79
2022/03/17 02:48:02;;;;;;;58.47;44.42;;;7.20;96.50;;;;;;5114562;28;20031;-78
2022/03/17 02:50:27;;;;;;;55.85;45.33;;;7.20;96.60;;;;;;5116701;28;20028;-79
2022/03/17 02:52:53;;;;;;;60.22;46.60;;;7.20;96.70;;;;;;5115934;28;20129;-78
2022/03/17 02:55:19;;;;;;;55.65;45.28;;;7.10;96.70;;;;;;5116192;28;20126;-78
2022/03/17 02:57:46;;;;;;;58.78;45.10;;;7.10;96.80;;;;;;5115744;28;20031;-79
2022/03/17 03:00:13;;;;;;;57.58;45.25;;;7.10;97.10;;;;;;5115106;28;20031;-80
2022/03/17 03:02:39;;;;;;;59.83;45.75;;;7.10;97.20;;;;;;5115837;28;20088;-79
2022/03/17 03:05:06;;;;;;;59.15;45.55;;;7.10;97.40;;;;;;5116337;28;20023;-80
2022/03/17 03:07:32;;;;;;;62.25;46.78;;;7.10;97.40;;;;;;5115953;28;20032;-79
2022/03/17 03:09:58;;;;;;;58.40;45.95;;;7.00;97.30;;;;;;5115840;28;20066;-78
2022/03/17 03:12:24;;;;;;;58.78;45.92;;;7.00;97.40;;;;;;5115852;28;20043;-78
2022/03/17 03:14:50;;;;;;;60.10;46.17;;;7.00;97.40;;;;;;5115313;28;20049;-78
2022/03/17 03:17:16;;;;;;;61.33;45.65;;;6.90;97.50;;;;;;5115834;28;20019;-79
2022/03/17 03:19:42;;;;;;;56.75;45.78;;;6.90;97.60;;;;;;5115361;28;20184;-79
2022/03/17 03:22:08;;;;;;;60.67;46.90;;;6.80;97.20;;;;;;5115988;28;20150;-79
2022/03/17 03:24:36;;;;;;;56.53;45.72;;;6.80;97.70;;;;;;5115220;28;20023;-78
2022/03/17 03:27:02;;;;;;;57.65;47.30;;;6.70;98.00;;;;;;5115682;28;20028;-79
2022/03/17 03:29:28;;;;;;;60.55;47.95;;;6.70;97.90;;;;;;5115796;28;20028;-79
2022/03/17 03:32:00;;;;;;;55.13;45.90;;;6.70;98.00;;;;;;5115053;28;20031;-79
2022/03/17 03:34:28;;;;;;;69.10;45.70;;;6.70;98.10;;;;;;5114333;28;20110;-79
2022/03/17 03:39:39;;;;;;;57.72;45.03;;;6.70;98.30;;;;;;5114638;28;20043;-79
2022/03/17 03:42:07;;;;;;;60.28;46.67;;;6.60;98.00;;;;;;5115461;28;20026;-79
2022/03/17 03:44:33;;;;;;;64.55;45.08;;;6.60;98.20;;;;;;5115428;27;20024;-80
2022/03/17 03:46:58;;;;;;;58.67;45.58;;;6.60;98.30;;;;;;5114745;28;20102;-80
2022/03/17 03:49:24;;;;;;;59.33;46.72;;;6.60;98.40;;;;;;5115169;28;20023;-79
2022/03/17 03:51:50;;;;;;;64.25;48.28;;;6.60;98.30;;;;;;5115045;28;20024;-79
2022/03/17 03:54:17;;;;;;;61.35;46.50;;;6.50;98.60;;;;;;5115488;28;20027;-80
2022/03/17 03:56:57;;;;;;;59.50;44.83;;;6.60;98.90;;;;;;5114685;28;20044;-79
2022/03/17 03:59:25;;;;;;;57.42;46.20;;;6.50;98.80;;;;;;5113202;28;20024;-80
2022/03/17 04:01:58;;;;;;;58.58;45.83;;;6.50;99.00;;;;;;5114426;28;20088;-80
2022/03/17 04:04:25;;;;;;;61.88;46.67;;;6.50;99.00;;;;;;5114648;28;20024;-79
2022/03/17 04:06:52;;;;;;;60.05;47.53;;;6.60;99.20;;;;;;5113009;28;20096;-78
2022/03/17 04:09:23;;;;;;;61.28;46.35;;;6.50;99.30;;;;;;5114796;28;20073;-78
2022/03/17 04:11:49;;;;;;;61.35;47.00;;;6.50;99.50;;;;;;5114257;28;20035;-79
2022/03/17 04:14:16;;;;;;;62.00;47.72;;;6.50;99.30;;;;;;5114697;28;20034;-79
2022/03/17 04:16:42;;;;;;;60.78;47.40;;;6.50;99.00;;;;;;5114044;28;20108;-79
2022/03/17 04:19:12;;;;;;;62.55;48.25;;;6.50;99.30;;;;;;5114725;28;20035;-78
2022/03/17 04:21:38;;;;;;;60.95;48.03;;;6.50;99.30;;;;;;5114100;28;20031;-79
2022/03/17 04:24:04;;;;;;;60.95;48.63;;;6.50;99.60;;;;;;5113016;28;20392;-78
2022/03/17 04:26:30;;;;;;;67.55;49.15;;;6.50;99.30;;;;;;5112465;28;20111;-79
2022/03/17 04:28:56;;;;;;;60.20;48.78;;;6.50;99.60;;;;;;5113934;28;20031;-80
2022/03/17 04:31:21;;;;;;;63.22;48.67;;;6.50;99.90;;;;;;5114389;28;20097;-80
2022/03/17 04:33:48;;;;;;;61.17;48.85;;;6.50;99.90;;;;;;5113554;28;20026;-79
2022/03/17 04:36:14;;;;;;;66.03;50.85;;;6.50;99.80;;;;;;5114142;28;20024;-79
2022/03/17 04:38:40;;;;;;;64.60;50.67;;;6.50;99.70;;;;;;5113668;28;20034;-79
2022/03/17 04:41:06;;;;;;;68.40;50.30;;;6.50;99.90;;;;;;5114164;28;20383;-80
2022/03/17 04:43:32;;;;;;;64.30;49.38;;;6.50;99.90;;;;;;5112678;28;20031;-80
2022/03/17 04:45:59;;;;;;;67.32;50.50;;;6.50;99.90;;;;;;5113515;28;20026;-79
2022/03/17 04:48:25;;;;;;;70.07;50.67;;;6.40;99.90;;;;;;5113722;28;20023;-79
2022/03/17 04:50:50;;;;;;;67.20;50.88;;;6.50;99.90;;;;;;5113213;28;20426;-79
2022/03/17 04:53:29;;;;;;;67.75;51.10;;;6.40;99.90;;;;;;5113908;28;20081;-79
2022/03/17 04:56:02;;;;;;;72.45;52.72;;;6.40;99.90;;;;;;5111822;28;20502;-79
2022/03/17 04:58:32;;;;;;;67.07;52.15;;;6.40;99.90;;;;;;5114348;28;20073;-79
2022/03/17 05:00:59;;;;;;;68.18;52.13;;;6.40;99.90;;;;;;5114128;28;20089;-78
2022/03/17 05:03:26;;;;;;;68.25;52.08;;;6.40;99.90;;;;;;5113711;28;20024;-79
2022/03/17 05:05:52;;;;;;;71.13;53.47;;;6.50;99.90;;;;;;5113138;28;20031;-80
2022/03/17 05:08:18;;;;;;;70.63;54.08;;;6.50;99.90;;;;;;5113762;28;20494;-79
2022/03/17 05:10:44;;;;;;;76.13;53.53;;;6.50;99.90;;;;;;5113351;28;20027;-78
2022/03/17 05:13:12;;;;;;;65.47;52.90;;;6.40;99.90;;;;;;5113764;28;20027;-78
2022/03/17 05:15:38;;;;;;;69.20;54.03;;;6.40;99.90;;;;;;5112945;28;20081;-78
2022/03/17 05:18:06;;;;;;;69.53;53.03;;;6.50;99.90;;;;;;5113344;28;20023;-79
2022/03/17 05:20:33;;;;;;;71.85;53.80;;;6.40;99.90;;;;;;5112751;28;20059;-79
2022/03/17 05:22:59;;;;;;;72.53;54.15;;;6.40;99.90;;;;;;5113437;28;20055;-78
2022/03/17 05:25:25;;;;;;;73.50;54.13;;;6.50;99.90;;;;;;5113282;28;20388;-78
2022/03/17 05:27:51;;;;;;;76.47;54.85;;;6.50;99.90;;;;;;5110748;28;20419;-78
2022/03/17 05:30:19;;;;;;;70.78;54.60;;;6.50;99.90;;;;;;5112485;28;20104;-77
2022/03/17 05:32:46;;;;;;;71.75;55.20;;;6.50;99.90;;;;;;5112537;28;20029;-79
2022/03/17 05:35:13;;;;;;;68.57;54.00;;;6.50;99.90;;;;;;5112946;28;20027;-78
2022/03/17 05:37:39;;;;;;;69.80;52.95;;;6.60;99.90;;;;;;5112045;27;20024;-77
2022/03/17 05:40:10;;;;;;;75.22;54.13;;;6.50;99.90;;;;;;5112920;28;20059;-78
2022/03/17 05:42:36;;;;;;;72.78;55.20;;;6.50;99.90;;;;;;5112403;28;20480;-79
2022/03/17 05:45:03;;;;;;;71.55;54.03;;;6.50;99.90;;;;;;5113014;28;20102;-77
2022/03/17 05:47:39;;;;;;;75.93;55.38;;;6.50;99.90;;;;;;5113047;28;20455;-78
2022/03/17 05:50:07;;;;;;;75.78;54.55;;;6.50;99.90;;;;;;5111676;28;20460;-79
2022/03/17 05:52:34;;;;;;;69.82;52.53;;;6.50;99.90;;;;;;5112255;28;20084;-77
2022/03/17 05:55:00;;;;;;;70.65;54.08;;;6.60;99.90;;;;;;5111081;28;20028;-75
2022/03/17 05:57:25;;;;;;;77.05;54.10;;;6.60;99.90;;;;;;5111612;28;20035;-78
2022/03/17 05:59:51;;;;;;;74.03;55.00;;;6.70;99.90;;;;;;5112862;28;20643;-78
2022/03/17 06:02:18;;;;;;;70.60;52.90;;;6.70;99.90;;;;;;5112921;28;20039;-76
2022/03/17 06:04:44;;;;;;;70.22;52.83;;;6.80;99.90;;;;;;5112546;28;20057;-77
2022/03/17 06:07:10;;;;;;;73.93;53.60;;;6.80;99.90;;;;;;5113334;28;20023;-77
2022/03/17 06:09:38;;;;;;;66.38;52.40;;;6.90;99.90;;;;;;5112595;28;20357;-78
2022/03/17 06:12:05;;;;;;;74.00;54.97;;;6.90;99.90;;;;;;5112382;28;20106;-79
2022/03/17 06:14:49;;;;;;;73.47;54.67;;;7.00;99.70;;;;;;5112995;28;20105;-77
2022/03/17 06:19:59;;;;;;;72.45;55.13;;;7.10;99.40;;;;;;5112728;28;20081;-76
2022/03/17 06:22:24;;;;;;;72.15;53.97;;;7.20;99.20;;;;;;5110490;28;20023;-76
2022/03/17 06:24:50;;;;;;;71.22;54.15;;;7.20;99.00;;;;;;5112512;28;20361;-78
2022/03/17 06:27:15;;;;;;;70.47;52.72;;;7.30;98.40;;;;;;5112601;28;20055;-77
2022/03/17 06:29:41;;;;;;;70.50;53.67;;;7.30;98.20;;;;;;5112628;28;20028;-77
2022/03/17 06:32:07;;;;;;;69.95;54.83;;;7.40;97.80;;;;;;5112977;28;20050;-77
2022/03/17 06:34:34;;;;;;;70.35;54.38;;;7.40;97.20;;;;;;5112706;28;20065;-76
2022/03/17 06:36:59;;;;;;;68.55;54.47;;;7.50;97.10;;;;;;5112985;28;20034;-76
2022/03/17 06:39:25;;;;;;;71.10;54.33;;;7.50;96.90;;;;;;5112789;28;20027;-77
2022/03/17 06:41:50;;;;;;;84.53;56.35;;;7.60;95.80;;;;;;5112633;28;20431;-77
2022/03/17 06:44:16;;;;;;;73.47;54.17;;;7.50;95.60;;;;;;5112783;28;20032;-77
2022/03/17 06:46:42;;;;;;;69.95;54.50;;;7.60;96.00;;;;;;5112481;28;20031;-76
2022/03/17 06:49:07;;;;;;;67.88;51.63;;;7.50;96.00;;;;;;5110923;28;20023;-76
2022/03/17 06:51:33;;;;;;;74.15;55.85;;;7.60;96.50;;;;;;5112762;28;20073;-78
2022/03/17 06:53:58;;;;;;;76.63;56.15;;;7.60;96.30;;;;;;5111085;28;20043;-77
2022/03/17 06:56:24;;;;;;;73.70;51.95;;;7.60;96.20;;;;;;5113164;28;20048;-78
2022/03/17 06:58:50;;;;;;;73.95;55.28;;;7.70;96.20;;;;;;5112289;28;20126;-77
2022/03/17 07:01:15;;;;;;;82.63;57.00;;;7.80;96.20;;;;;;5112650;28;20028;-77
2022/03/17 07:03:41;;;;;;;83.60;58.28;;;7.90;96.00;;;;;;5112459;28;20081;-78
2022/03/17 07:06:06;;;;;;;77.68;56.75;;;7.90;95.50;;;;;;5112620;28;20031;-78
2022/03/17 07:08:32;;;;;;;83.70;57.15;;;8.00;95.50;;;;;;5112603;28;20110;-78
2022/03/17 07:10:58;;;;;;;74.72;57.10;;;8.00;95.10;;;;;;5112543;28;20103;-78
2022/03/17 07:13:23;;;;;;;75.53;56.40;;;8.10;94.80;;;;;;5112529;28;20024;-78
2022/03/17 07:15:49;;;;;;;71.50;54.55;;;8.20;94.80;;;;;;5112241;28;20031;-78
2022/03/17 07:18:14;;;;;;;74.05;57.08;;;8.20;94.60;;;;;;5112379;28;20036;-77
2022/03/17 07:20:40;;;;;;;76.85;56.28;;;8.30;94.70;;;;;;5112190;28;20023;-78
2022/03/17 07:23:06;;;;;;;76.30;56.28;;;8.30;94.40;;;;;;5112576;28;20104;-79
2022/03/17 07:25:31;;;;;;;73.53;55.05;;;8.40;94.30;;;;;;5112111;28;20091;-78
2022/03/17 07:27:58;;;;;;;72.57;57.42;;;8.40;93.70;;;;;;5112576;28;20035;-77
2022/03/17 07:30:24;;;;;;;81.22;58.38;;;8.50;93.50;;;;;;5112379;28;20027;-77
2022/03/17 07:32:59;;;;;;;71.47;55.58;;;8.50;93.20;;;;;;5112457;28;20028;-77
2022/03/17 07:35:26;;;;;;;72.88;56.53;;;8.60;93.20;;;;;;5116170;28;20019;-77
2022/03/17 07:37:52;;;;;;;71.63;54.40;;;8.70;92.90;;;;;;5115178;28;20068;-78
2022/03/17 07:40:19;;;;;;;75.32;56.47;;;8.80;92.50;;;;;;5115857;28;20027;-78
2022/03/17 07:42:44;;;;;;;73.80;56.70;;;8.90;92.20;;;;;;5115574;28;20119;-78
2022/03/17 07:45:11;;;;;;;71.43;55.58;;;9.00;92.10;;;;;;5114399;28;20131;-77
2022/03/17 07:47:47;;;;;;;75.43;57.75;;;9.00;92.10;;;;;;5115356;28;20586;-77
2022/03/17 07:50:13;;;;;;;74.60;56.92;;;9.10;91.70;;;;;;5115678;28;20020;-76
2022/03/17 07:52:39;;;;;;;70.90;57.00;;;9.10;91.30;;;;;;5115452;28;20027;-77
2022/03/17 07:55:05;;;;;;;75.82;58.20;;;9.20;91.20;;;;;;5114973;27;20476;-77
2022/03/17 07:57:32;;;;;;;77.97;56.72;;;9.20;91.80;;;;;;5115518;28;20084;-77
2022/03/17 07:59:58;;;;;;;75.85;57.75;;;9.30;91.40;;;;;;5115644;28;20515;-77
2022/03/17 08:02:24;;;;;;;71.75;55.58;;;9.40;91.00;;;;;;5115432;28;20027;-78
2022/03/17 08:04:50;;;;;;;75.78;56.25;;;9.40;90.90;;;;;;5114752;27;20032;-77
2022/03/17 08:07:16;;;;;;;71.25;55.60;;;9.50;90.80;;;;;;5115442;28;20039;-77
2022/03/17 08:09:42;;;;;;;72.85;57.20;;;9.50;90.70;;;;;;5115144;28;20384;-77
2022/03/17 08:12:08;;;;;;;73.00;56.35;;;9.60;90.20;;;;;;5115195;28;20024;-76
2022/03/17 08:14:35;;;;;;;80.32;59.70;;;9.60;89.40;;;;;;5115269;28;20382;-76
2022/03/17 08:17:00;;;;;;;81.05;57.15;;;9.70;90.20;;;;;;5114795;28;20023;-77
2022/03/17 08:19:26;;;;;;;76.85;57.60;;;9.70;89.60;;;;;;5114512;28;20471;-77
2022/03/17 08:21:53;;;;;;;77.53;57.25;;;9.70;89.00;;;;;;5114555;28;20059;-78
2022/03/17 08:24:18;;;;;;;76.07;56.03;;;9.70;88.40;;;;;;5115124;28;20035;-77
2022/03/17 08:26:44;;;;;;;76.20;56.30;;;9.70;89.40;;;;;;5114346;28;20024;-77
2022/03/17 08:29:09;;;;;;;74.60;56.15;;;9.80;88.90;;;;;;5114916;28;20441;-77
2022/03/17 08:31:35;;;;;;;71.95;57.47;;;9.80;89.10;;;;;;5113247;28;20020;-77
2022/03/17 08:34:01;;;;;;;75.28;58.28;;;9.90;89.00;;;;;;5113120;28;20068;-76
2022/03/17 08:36:27;;;;;;;77.68;55.92;;;10.00;89.80;;;;;;5114430;28;20031;-77
2022/03/17 08:38:53;;;;;;;71.70;56.03;;;10.10;89.40;;;;;;5114155;28;20038;-77
2022/03/17 08:41:19;;;;;;;72.55;54.67;;;10.20;88.20;;;;;;5114276;28;20114;-77
2022/03/17 08:43:45;;;;;;;69.95;57.17;;;10.30;88.00;;;;;;5114472;28;20027;-77
2022/03/17 08:51:39;;;;;;;74.70;54.38;;;10.40;84.40;;;;;;5114567;28;20030;-77
2022/03/17 08:54:05;;;;;;;69.45;55.22;;;10.50;83.40;;;;;;5114659;28;20028;-78
2022/03/17 08:56:32;;;;;;;65.82;50.15;;;10.50;82.70;;;;;;5114458;28;20403;-78
2022/03/17 08:58:58;;;;;;;63.38;49.50;;;10.50;81.60;;;;;;5114264;28;20118;-78
2022/03/17 09:01:24;;;;;;;58.15;45.17;;;10.60;82.00;;;;;;5114302;28;20057;-78
2022/03/17 09:03:50;;;;;;;54.13;44.78;;;10.60;80.20;;;;;;5114157;28;20064;-78
2022/03/17 09:06:15;;;;;;;57.33;45.95;;;10.60;77.70;;;;;;5114400;28;20345;-78
2022/03/17 09:08:41;;;;;;;57.95;46.58;;;10.40;78.00;;;;;;5114326;28;20035;-79
2022/03/17 09:11:07;;;;;;;59.55;46.17;;;10.40;78.20;;;;;;5113876;28;20035;-78
2022/03/17 09:13:34;;;;;;;55.42;43.65;;;10.40;78.90;;;;;;5113009;28;20122;-78
2022/03/17 09:15:59;;;;;;;52.35;42.67;;;10.40;79.50;;;;;;5113988;28;20092;-77
2022/03/17 09:18:27;;;;;;;52.92;41.30;;;10.40;78.70;;;;;;5114254;28;20031;-77
2022/03/17 09:20:53;;;;;;;51.08;40.78;;;10.40;76.60;;;;;;5114043;28;20016;-79
2022/03/17 09:23:19;;;;;;;48.33;40.63;;;10.30;75.40;;;;;;5114313;28;20031;-78
2022/03/17 09:25:45;;;;;;;54.25;41.63;;;10.40;75.80;;;;;;5113967;28;20023;-79
2022/03/17 09:28:12;;;;;;;53.50;41.47;;;10.40;76.40;;;;;;5114099;28;20055;-76
2022/03/17 09:30:37;;;;;;;46.38;38.92;;;10.50;76.90;;;;;;5114095;28;20028;-78
2022/03/17 09:33:05;;;;;;;47.55;39.97;;;10.50;75.80;;;;;;5113331;28;20032;-77
2022/03/17 09:35:31;;;;;;;46.92;39.28;;;10.60;74.80;;;;;;5114145;28;20114;-78
2022/03/17 09:37:56;;;;;;;48.42;39.15;;;10.60;75.20;;;;;;5113748;28;20111;-77
2022/03/17 09:40:22;;;;;;;49.58;39.55;;;10.70;75.00;;;;;;5114033;28;20027;-77
2022/03/17 09:42:48;;;;;;;44.92;38.60;;;10.80;73.90;;;;;;5112705;28;20023;-85
2022/03/17 09:45:14;;;;;;;49.13;39.15;;;10.90;74.40;;;;;;5112373;28;20023;-78
2022/03/17 09:47:43;;;;;;;48.00;39.42;;;10.90;73.60;;;;;;5114017;28;20023;-78
2022/03/17 09:50:13;;;;;;;48.10;38.65;;;11.00;74.50;;;;;;5113480;28;20495;-76
2022/03/17 09:52:41;;;;;;;51.85;39.78;;;11.00;73.70;;;;;;5113544;28;20026;-77
2022/03/17 09:55:11;;;;;;;48.05;38.92;;;11.10;73.70;;;;;;5113008;28;20092;-77
2022/03/17 09:57:43;;;;;;;51.60;39.47;;;11.10;73.70;;;;;;5113495;28;20123;-77
2022/03/17 10:00:12;;;;;;;46.83;38.70;;;11.20;73.10;;;;;;5113115;28;20476;-76
2022/03/17 10:02:39;;;;;;;53.03;39.90;;;11.20;73.20;;;;;;5113548;28;20023;-76
2022/03/17 10:05:06;;;;;;;51.15;39.15;;;11.20;73.00;;;;;;5113245;28;20020;-77
2022/03/17 10:07:35;;;;;;;45.75;37.03;;;11.30;73.50;;;;;;5113486;28;20030;-77
2022/03/17 10:10:01;;;;;;;43.63;35.47;;;11.30;73.30;;;;;;5113216;28;20054;-77
2022/03/17 10:12:30;;;;;;;48.80;37.33;;;11.30;73.20;;;;;;5113195;28;20034;-77
2022/03/17 10:14:56;;;;;;;44.95;36.65;;;11.40;72.40;;;;;;5112965;28;20076;-77
2022/03/17 10:17:33;;;;;;;47.10;36.03;;;11.50;71.80;;;;;;5113605;28;20074;-77
2022/03/17 10:20:10;;;;;;;37.25;32.55;;;11.50;70.10;;;;;;5112382;28;20036;-78
2022/03/17 10:22:48;;;;;;;44.13;33.97;;;11.50;69.60;;;;;;5113062;28;20020;-77
2022/03/17 10:25:19;;;;;;;38.03;31.83;;;11.60;68.30;;;;;;5113081;28;20030;-79
2022/03/17 10:27:45;;;;;;;39.33;32.35;;;11.60;67.30;;;;;;5113468;28;20099;-77
2022/03/17 10:30:13;;;;;;;39.92;32.60;;;11.60;66.70;;;;;;5113039;28;20080;-76
2022/03/17 10:32:57;;;;;;;42.38;33.25;;;11.60;67.00;;;;;;5114266;28;20055;-77
2022/03/17 10:35:34;;;;;;;43.13;32.70;;;11.70;66.60;;;;;;5121076;28;20031;-77
2022/03/17 10:38:14;;;;;;;41.42;32.78;;;11.70;66.20;;;;;;5117606;28;20106;-78
2022/03/17 10:40:41;;;;;;;41.38;32.38;;;11.70;66.10;;;;;;5113257;28;20034;-77
2022/03/17 10:43:22;;;;;;;38.50;32.08;;;11.70;66.60;;;;;;5111725;28;20065;-77
2022/03/17 10:46:02;;;;;;;38.47;31.80;;;11.80;65.10;;;;;;5113137;28;20031;-77
2022/03/17 10:48:28;;;;;;;41.70;33.38;;;11.80;62.70;;;;;;5113006;28;20078;-78
2022/03/17 10:50:53;;;;;;;40.63;32.25;;;11.80;63.20;;;;;;5112325;28;20020;-79
2022/03/17 10:53:27;;;;;;;38.75;29.15;;;11.90;63.90;;;;;;5112702;28;20024;-78
2022/03/17 10:56:01;;;;;;;35.85;28.02;;;11.90;59.40;;;;;;5111174;28;20039;-92
2022/03/17 10:58:27;;;;;;;41.28;28.02;;;12.10;59.90;;;;;;5112709;28;20035;-78
2022/03/17 11:00:56;;;;;;;29.70;25.20;;;12.10;58.70;;;;;;5112596;28;20031;-79
2022/03/17 11:03:23;;;;;;;35.22;25.58;;;12.20;53.60;;;;;;5112849;28;20103;-75
2022/03/17 11:05:51;;;;;;;36.75;25.38;;;12.20;53.30;;;;;;5112474;28;20337;-76
2022/03/17 11:08:20;;;;;;;32.63;24.13;;;12.30;52.70;;;;;;5113484;28;20053;-77
2022/03/17 11:10:45;;;;;;;35.20;23.85;;;12.40;51.20;;;;;;5115220;28;20527;-77
2022/03/17 11:13:11;;;;;;;33.75;24.60;;;12.40;50.70;;;;;;5116461;28;20035;-78
2022/03/17 11:15:40;;;;;;;33.10;23.77;;;12.50;50.80;;;;;;5116377;28;20028;-78
2022/03/17 11:18:18;;;;;;;32.35;23.85;;;12.60;51.70;;;;;;5116026;28;20036;-78
2022/03/17 11:20:44;;;;;;;30.77;22.58;;;12.60;50.60;;;;;;5116130;28;20031;-77
2022/03/17 11:23:19;;;;;;;32.63;22.92;;;12.70;48.80;;;;;;5115786;28;20049;-77
2022/03/17 11:25:51;;;;;;;28.45;21.40;;;12.80;48.10;;;;;;5116512;28;20106;-77
2022/03/17 11:28:16;;;;;;;27.58;20.58;;;12.70;46.70;;;;;;5114783;28;20028;-78
2022/03/17 11:30:47;;;;;;;23.60;18.48;;;12.70;45.70;;;;;;5116245;28;20510;-77
2022/03/17 11:33:26;;;;;;;23.70;18.58;;;12.70;43.80;;;;;;5116476;28;20023;-78
2022/03/17 11:35:54;;;;;;;25.20;18.10;;;12.80;43.20;;;;;;5116271;28;20028;-77
2022/03/17 11:38:32;;;;;;;25.33;17.95;;;12.80;40.90;;;;;;5115829;28;20460;-77
2022/03/17 11:41:07;;;;;;;28.60;17.33;;;12.80;40.80;;;;;;5114285;28;20027;-79
2022/03/17 11:43:42;;;;;;;23.33;17.38;;;12.80;41.00;;;;;;5115914;28;20081;-77
2022/03/17 11:46:11;;;;;;;24.10;18.58;;;12.90;40.80;;;;;;5115854;28;20035;-77
2022/03/17 11:48:37;;;;;;;24.75;18.30;;;12.90;42.20;;;;;;5116329;28;20033;-78
2022/03/17 11:51:06;;;;;;;25.27;19.33;;;13.00;42.50;;;;;;5115564;28;20106;-79
2022/03/17 11:53:39;;;;;;;23.08;17.73;;;13.10;42.60;;;;;;5115867;28;20031;-78
2022/03/17 11:56:06;;;;;;;24.52;19.10;;;13.20;41.20;;;;;;5115376;28;20135;-78
2022/03/17 11:58:42;;;;;;;26.52;18.95;;;13.20;41.60;;;;;;5115236;28;20443;-77
2022/03/17 12:01:13;;;;;;;24.00;17.38;;;13.20;42.20;;;;;;5115467;28;20525;-78
2022/03/17 12:03:44;;;;;;;;;;;13.20;40.80;;;;;;5115922;28;20031;-78
2022/03/17 12:06:14;;;;;;;22.85;17.60;;;13.20;41.30;;;;;;5115177;28;20390;-79
2022/03/17 12:08:41;;;;;;;25.05;18.33;;;13.20;41.40;;;;;;5115634;27;20111;-77
2022/03/17 12:11:15;;;;;;;24.70;18.73;;;13.20;41.30;;;;;;5113663;28;20480;-77
2022/03/17 12:14:22;;;;;;;22.98;17.50;;;13.20;42.40;;;;;;5115581;28;20039;-78
2022/03/17 12:17:17;;;;;;;21.45;16.98;;;13.20;41.30;;;;;;5114159;28;20483;-77
2022/03/17 12:19:48;;;;;;;24.50;16.20;;;13.30;40.90;;;;;;5114341;28;20023;-77
2022/03/17 12:22:26;;;;;;;21.13;17.00;;;13.40;40.80;;;;;;5115252;28;20111;-78
2022/03/17 12:25:22;;;;;;;21.45;16.48;;;13.40;40.80;;;;;;5114917;28;20023;-78
2022/03/17 12:27:59;;;;;;;20.50;16.95;;;13.50;41.10;;;;;;5105515;28;20434;-78
2022/03/17 12:30:26;;;;;;;19.35;16.13;;;13.60;40.20;;;;;;5114947;28;20537;-78
2022/03/17 12:32:56;;;;;;;24.08;18.55;;;13.70;39.80;;;;;;5114867;28;20337;-79
2022/03/17 12:35:28;;;;;;;23.85;17.45;;;13.70;40.10;;;;;;5114885;28;20043;-78
2022/03/17 12:38:03;;;;;;;21.75;16.65;;;13.70;40.10;;;;;;5115002;28;20452;-77
2022/03/17 12:40:34;;;;;;;23.98;16.90;;;13.70;39.70;;;;;;5114379;28;20111;-77
2022/03/17 12:43:11;;;;;;;28.08;16.73;;;13.70;38.80;;;;;;5114479;28;20028;-92
2022/03/17 12:45:37;;;;;;;22.55;16.38;;;13.70;38.00;;;;;;5115279;27;20039;-78
2022/03/17 12:48:09;;;;;;;21.88;15.43;;;13.60;37.30;;;;;;5114279;28;20032;-78
2022/03/17 12:50:35;;;;;;;20.33;15.48;;;13.60;36.80;;;;;;5114766;28;20024;-77
2022/03/17 12:53:00;;;;;;;22.25;15.82;;;13.50;36.20;;;;;;5114421;28;20030;-78
2022/03/17 12:55:27;;;;;;;23.88;16.17;;;13.50;36.30;;;;;;5114664;28;20537;-78